createdAt,value
2023-04-15T00:01:49.271Z,18.00
2023-04-15T00:04:16.297Z,19.52
2023-04-15T00:06:43.342Z,20.00
2023-04-15T00:09:11.165Z,16.17
2023-04-15T00:11:38.061Z,16.50
2023-04-15T00:14:06.238Z,16.67
2023-04-15T00:16:33.398Z,12.70
2023-04-15T00:19:00.577Z,21.67
2023-04-15T00:21:29.144Z,19.65
2023-04-15T00:23:55.982Z,15.10
2023-04-15T00:26:25.620Z,14.25
2023-04-15T00:28:52.567Z,16.70
2023-04-15T00:31:19.529Z,15.25
2023-04-15T00:33:47.432Z,16.88
2023-04-15T00:36:14.678Z,16.05
2023-04-15T00:38:41.576Z,16.42
2023-04-15T00:41:09.442Z,12.68
2023-04-15T00:43:36.624Z,12.88
2023-04-15T00:46:05.049Z,12.75
2023-04-15T00:48:32.643Z,12.75
2023-04-15T00:51:00.617Z,14.43
2023-04-15T00:53:27.500Z,12.95
2023-04-15T00:55:55.226Z,10.98
2023-04-15T00:58:22.466Z,11.00
2023-04-15T01:00:49.459Z,11.18
2023-04-15T01:03:16.401Z,12.35
2023-04-15T01:05:43.542Z,13.82
2023-04-15T01:08:10.758Z,13.68
2023-04-15T01:10:38.016Z,14.50
2023-04-15T01:13:06.233Z,14.27
2023-04-15T01:15:33.334Z,15.00
2023-04-15T01:18:00.602Z,11.32
2023-04-15T01:20:28.812Z,14.57
2023-04-15T01:22:59.189Z,14.85
2023-04-15T01:25:35.350Z,10.93
2023-04-15T01:28:02.698Z,11.93
2023-04-15T01:30:30.057Z,11.48
2023-04-15T01:32:57.079Z,11.57
2023-04-15T01:35:24.060Z,10.45
2023-04-15T01:37:52.767Z,13.15
2023-04-15T01:40:19.583Z,11.38
2023-04-15T01:42:46.733Z,17.13
2023-04-15T01:45:14.193Z,14.27
2023-04-15T01:47:41.247Z,14.30
2023-04-15T01:50:08.597Z,14.80
2023-04-15T01:52:35.613Z,13.10
2023-04-15T01:55:02.425Z,12.95
2023-04-15T01:57:29.638Z,13.68
2023-04-15T01:59:56.909Z,17.02
2023-04-15T02:02:23.780Z,14.00
2023-04-15T02:04:50.793Z,14.23
2023-04-15T02:07:17.637Z,14.80
2023-04-15T02:09:46.125Z,13.68
2023-04-15T02:12:13.433Z,15.60
2023-04-15T02:14:41.534Z,15.48
2023-04-15T02:17:08.534Z,12.65
2023-04-15T02:19:35.832Z,13.00
2023-04-15T02:22:02.632Z,16.75
2023-04-15T02:24:30.749Z,16.80
2023-04-15T02:26:57.742Z,13.52
2023-04-15T02:29:24.611Z,15.05
2023-04-15T02:31:51.638Z,16.58
2023-04-15T02:34:18.387Z,17.08
2023-04-15T02:36:47.263Z,15.55
2023-04-15T02:39:17.021Z,14.88
2023-04-15T02:41:47.681Z,16.88
2023-04-15T02:44:25.771Z,12.40
2023-04-15T02:46:55.166Z,18.80
2023-04-15T02:49:22.023Z,18.15
2023-04-15T02:51:49.871Z,16.58
2023-04-15T02:54:21.088Z,16.92
2023-04-15T02:56:47.968Z,14.07
2023-04-15T02:59:14.815Z,13.00
2023-04-15T03:01:41.874Z,13.30
2023-04-15T03:04:09.174Z,11.85
2023-04-15T03:06:36.353Z,10.95
2023-04-15T03:09:03.896Z,10.13
2023-04-15T03:11:31.576Z,9.52
2023-04-15T03:13:58.767Z,11.90
2023-04-15T03:16:26.127Z,11.48
2023-04-15T03:18:53.126Z,10.52
2023-04-15T03:21:20.135Z,8.75
2023-04-15T03:23:50.000Z,12.95
2023-04-15T03:26:30.552Z,11.70
2023-04-15T03:28:59.566Z,19.25
2023-04-15T03:31:26.706Z,11.70
2023-04-15T03:33:54.766Z,16.50
2023-04-15T03:36:21.574Z,18.73
2023-04-15T03:38:49.405Z,14.57
2023-04-15T03:41:16.220Z,16.90
2023-04-15T03:43:43.116Z,12.18
2023-04-15T03:46:10.070Z,14.18
2023-04-15T03:48:37.004Z,12.75
2023-04-15T03:51:04.155Z,16.98
2023-04-15T03:53:31.254Z,20.40
2023-04-15T03:55:58.099Z,18.05
2023-04-15T03:58:25.565Z,14.75
2023-04-15T04:00:52.520Z,15.27
2023-04-15T04:03:19.665Z,16.17
2023-04-15T04:05:46.658Z,15.23
2023-04-15T04:08:14.069Z,16.40
2023-04-15T04:10:40.989Z,15.32
2023-04-15T04:13:07.955Z,14.55
2023-04-15T04:15:34.918Z,11.57
2023-04-15T04:18:02.255Z,15.65
2023-04-15T04:20:29.238Z,15.43
2023-04-15T04:22:56.033Z,11.38
2023-04-15T04:25:23.084Z,11.60
2023-04-15T04:27:50.127Z,11.52
2023-04-15T04:30:17.381Z,15.07
2023-04-15T04:32:44.461Z,14.05
2023-04-15T04:35:11.435Z,13.70
2023-04-15T04:37:38.749Z,14.30
2023-04-15T04:40:06.339Z,16.23
2023-04-15T04:42:35.689Z,17.38
2023-04-15T04:45:04.316Z,14.45
2023-04-15T04:47:31.373Z,12.32
2023-04-15T04:49:58.360Z,16.70
2023-04-15T04:52:25.525Z,14.63
2023-04-15T04:54:52.306Z,16.85
2023-04-15T04:57:20.292Z,14.50
2023-04-15T04:59:47.015Z,14.38
2023-04-15T05:02:13.907Z,14.32
2023-04-15T05:04:41.929Z,16.60
2023-04-15T05:07:08.831Z,12.82
2023-04-15T05:09:36.996Z,13.25
2023-04-15T05:12:08.294Z,14.10
2023-04-15T05:14:35.495Z,11.00
2023-04-15T05:17:02.298Z,14.45
2023-04-15T05:19:29.129Z,13.90
2023-04-15T05:21:56.086Z,12.00
2023-04-15T05:24:23.136Z,16.05
2023-04-15T05:26:50.132Z,14.90
2023-04-15T05:29:17.013Z,13.98
2023-04-15T05:31:43.976Z,16.58
2023-04-15T05:34:12.236Z,12.50
2023-04-15T05:36:39.500Z,10.93
2023-04-15T05:39:06.385Z,14.00
2023-04-15T05:41:33.844Z,15.68
2023-04-15T05:44:00.796Z,11.40
2023-04-15T05:46:27.659Z,16.40
2023-04-15T05:48:56.408Z,13.57
2023-04-15T05:51:23.465Z,16.65
2023-04-15T05:53:50.727Z,14.65
2023-04-15T05:56:17.635Z,14.02
2023-04-15T05:58:44.619Z,19.63
2023-04-15T06:01:12.015Z,15.13
2023-04-15T06:03:39.893Z,15.80
2023-04-15T06:06:07.852Z,15.23
2023-04-15T06:08:34.700Z,19.10
2023-04-15T06:11:01.716Z,19.92
2023-04-15T06:13:29.205Z,17.75
2023-04-15T06:15:56.230Z,16.65
2023-04-15T06:18:23.149Z,16.63
2023-04-15T06:20:50.292Z,18.95
2023-04-15T06:23:17.097Z,18.02
2023-04-15T06:25:44.229Z,19.50
2023-04-15T06:28:11.182Z,21.10
2023-04-15T06:30:41.805Z,20.17
2023-04-15T06:33:08.776Z,19.55
2023-04-15T06:35:35.854Z,25.48
2023-04-15T06:38:02.957Z,24.23
2023-04-15T06:40:29.816Z,20.17
2023-04-15T06:42:56.682Z,28.30
2023-04-15T06:45:23.944Z,21.35
2023-04-15T06:47:52.886Z,25.27
2023-04-15T06:50:19.670Z,25.65
2023-04-15T06:52:46.613Z,25.52
2023-04-15T06:55:13.564Z,23.45
2023-04-15T06:57:40.534Z,26.42
2023-04-15T07:00:08.079Z,27.48
2023-04-15T07:02:35.207Z,25.42
2023-04-15T07:05:02.069Z,24.42
2023-04-15T07:07:29.011Z,27.33
2023-04-15T07:09:55.908Z,26.08
2023-04-15T07:12:22.696Z,28.70
2023-04-15T07:14:49.639Z,36.40
2023-04-15T07:17:16.974Z,30.25
2023-04-15T07:19:43.948Z,29.55
2023-04-15T07:22:10.723Z,26.95
2023-04-15T07:24:37.413Z,27.25
2023-04-15T07:27:04.355Z,31.95
2023-04-15T07:29:31.718Z,25.00
2023-04-15T07:31:58.556Z,29.95
2023-04-15T07:34:25.758Z,27.67
2023-04-15T07:36:52.972Z,28.30
2023-04-15T07:39:19.906Z,27.98
2023-04-15T07:41:46.806Z,25.55
2023-04-15T07:44:13.736Z,25.38
2023-04-15T07:46:40.748Z,26.33
2023-04-15T07:49:09.351Z,27.67
2023-04-15T07:51:36.247Z,29.65
2023-04-15T07:54:03.534Z,19.95
2023-04-15T07:56:30.450Z,23.00
2023-04-15T07:58:57.311Z,22.55
2023-04-15T08:01:24.068Z,20.30
2023-04-15T08:03:51.610Z,24.95
2023-04-15T08:06:18.618Z,17.45
2023-04-15T08:08:45.560Z,16.67
2023-04-15T08:11:13.231Z,19.83
2023-04-15T08:13:40.493Z,16.30
2023-04-15T08:16:22.581Z,18.40
2023-04-15T08:18:53.717Z,19.85
2023-04-15T08:21:21.126Z,14.57
2023-04-15T08:23:52.224Z,14.13
2023-04-15T08:26:20.007Z,12.80
2023-04-15T08:28:47.431Z,14.20
2023-04-15T08:31:19.614Z,14.90
2023-04-15T08:36:14.935Z,11.60
2023-04-15T08:38:44.390Z,10.57
2023-04-15T08:41:25.746Z,9.70
2023-04-15T08:44:02.055Z,9.23
2023-04-15T08:46:31.581Z,9.63
2023-04-15T08:48:59.735Z,10.70
2023-04-15T08:51:27.617Z,10.20
2023-04-15T08:53:55.013Z,8.73
2023-04-15T08:56:26.429Z,11.43
2023-04-15T08:58:53.758Z,9.13
2023-04-15T09:01:20.649Z,9.18
2023-04-15T09:03:50.991Z,8.80
2023-04-15T09:06:18.418Z,10.27
2023-04-15T09:08:45.717Z,11.63
2023-04-15T09:11:14.153Z,11.35
2023-04-15T09:13:40.990Z,10.82
2023-04-15T09:16:08.644Z,12.10
2023-04-15T09:18:37.232Z,12.68
2023-04-15T09:21:09.189Z,9.18
2023-04-15T09:23:37.262Z,14.23
2023-04-15T09:26:04.580Z,12.27
2023-04-15T09:28:32.078Z,13.85
2023-04-15T09:31:01.392Z,12.73
2023-04-15T09:33:29.301Z,11.65
2023-04-15T09:36:02.688Z,11.82
2023-04-15T09:38:29.881Z,12.25
2023-04-15T09:40:57.605Z,10.43
2023-04-15T09:43:41.179Z,9.93
2023-04-15T09:46:08.395Z,7.70
2023-04-15T09:48:36.883Z,8.35
2023-04-15T09:51:04.012Z,9.70
2023-04-15T09:53:35.167Z,10.20
2023-04-15T09:56:02.598Z,9.02
2023-04-15T09:58:32.296Z,9.15
2023-04-15T10:01:00.533Z,10.52
2023-04-15T10:03:36.610Z,10.70
2023-04-15T10:06:04.369Z,11.80
2023-04-15T10:08:33.743Z,11.18
2023-04-15T10:11:06.583Z,10.77
2023-04-15T10:13:35.410Z,10.95
2023-04-15T10:16:14.419Z,13.73
2023-04-15T10:18:45.748Z,11.07
2023-04-15T10:21:16.833Z,11.43
2023-04-15T10:23:45.056Z,8.02
2023-04-15T10:26:14.849Z,8.48
2023-04-15T10:28:44.269Z,7.80
2023-04-15T10:31:15.056Z,7.93
2023-04-15T10:33:43.537Z,7.22
2023-04-15T10:36:11.889Z,8.68
2023-04-15T10:38:39.878Z,12.30
2023-04-15T10:41:18.725Z,7.05
2023-04-15T10:43:56.989Z,10.60
2023-04-15T10:46:40.331Z,9.18
2023-04-15T10:49:18.046Z,10.00
2023-04-15T10:51:47.666Z,9.45
2023-04-15T10:54:16.877Z,6.90
2023-04-15T10:56:46.254Z,6.95
2023-04-15T10:59:13.102Z,6.00
2023-04-15T11:02:09.291Z,7.38
2023-04-15T11:04:56.277Z,7.35
2023-04-15T11:07:48.777Z,9.90
2023-04-15T11:10:21.415Z,11.02
2023-04-15T11:12:52.247Z,8.75
2023-04-15T11:15:42.991Z,7.00
2023-04-15T11:18:18.024Z,6.20
2023-04-15T11:20:45.912Z,5.57
2023-04-15T11:23:15.151Z,5.50
2023-04-15T11:25:43.817Z,5.43
2023-04-15T11:28:12.494Z,5.88
2023-04-15T11:30:40.798Z,5.18
2023-04-15T11:33:09.733Z,6.88
2023-04-15T11:35:36.957Z,7.25
2023-04-15T11:38:10.111Z,9.57
2023-04-15T11:40:38.171Z,6.15
2023-04-15T11:43:13.451Z,6.70
2023-04-15T11:45:53.580Z,9.25
2023-04-15T11:48:27.621Z,8.15
2023-04-15T11:50:56.947Z,7.85
2023-04-15T11:53:24.603Z,11.52
2023-04-15T11:55:53.593Z,7.10
2023-04-15T11:58:23.495Z,8.57
2023-04-15T12:00:57.573Z,8.73
2023-04-15T12:03:26.009Z,7.65
2023-04-15T12:06:07.504Z,6.90
2023-04-15T12:09:08.507Z,7.88
2023-04-15T12:11:59.085Z,8.82
2023-04-15T12:14:30.719Z,6.35
2023-04-15T12:17:00.402Z,7.93
2023-04-15T12:19:42.729Z,7.03
2023-04-15T12:22:14.079Z,9.55
2023-04-15T12:24:44.334Z,5.97
2023-04-15T12:27:16.566Z,8.20
2023-04-15T12:29:44.153Z,6.05
2023-04-15T12:32:21.298Z,4.45
2023-04-15T12:34:52.824Z,6.95
2023-04-15T12:37:19.934Z,5.13
2023-04-15T12:39:48.883Z,8.52
2023-04-15T12:42:16.852Z,7.43
2023-04-15T12:44:43.882Z,6.13
2023-04-15T12:47:11.477Z,6.65
2023-04-15T12:49:39.435Z,5.97
2023-04-15T12:52:07.020Z,8.27
2023-04-15T12:54:34.932Z,8.85
2023-04-15T12:57:04.668Z,6.30
2023-04-15T12:59:33.718Z,4.68
2023-04-15T13:02:01.318Z,6.47
2023-04-15T13:04:30.799Z,6.10
2023-04-15T13:06:58.205Z,5.97
2023-04-15T13:09:27.425Z,6.13
2023-04-15T13:11:54.729Z,5.70
2023-04-15T13:14:21.858Z,3.78
2023-04-15T13:16:49.130Z,8.57
2023-04-15T13:19:15.963Z,5.50
2023-04-15T13:21:44.163Z,5.68
2023-04-15T13:24:11.472Z,6.68
2023-04-15T13:26:38.636Z,9.40
2023-04-15T13:29:05.578Z,7.25
2023-04-15T13:31:34.872Z,6.22
2023-04-15T13:34:01.848Z,11.02
2023-04-15T13:36:28.680Z,6.65
2023-04-15T13:38:55.815Z,9.77
2023-04-15T13:41:22.812Z,5.70
2023-04-15T13:43:49.628Z,5.97
2023-04-15T13:46:16.746Z,6.07
2023-04-15T13:48:46.684Z,6.60
2023-04-15T13:51:13.469Z,6.90
2023-04-15T13:53:40.306Z,10.93
2023-04-15T13:56:08.517Z,7.15
2023-04-15T13:58:36.677Z,8.43
2023-04-15T14:01:05.842Z,5.65
2023-04-15T14:03:34.197Z,4.45
2023-04-15T14:06:01.329Z,9.43
2023-04-15T14:08:28.415Z,5.57
2023-04-15T14:10:55.294Z,8.10
2023-04-15T14:13:22.060Z,4.88
2023-04-15T14:15:48.902Z,7.20
2023-04-15T14:18:15.700Z,4.40
2023-04-15T14:20:42.435Z,6.07
2023-04-15T14:23:09.280Z,8.38
2023-04-15T14:25:36.190Z,6.88
2023-04-15T14:28:03.792Z,6.03
2023-04-15T14:30:30.927Z,6.05
2023-04-15T14:32:57.823Z,12.40
2023-04-15T14:35:26.638Z,11.52
2023-04-15T14:37:54.451Z,10.65
2023-04-15T14:40:21.775Z,11.30
2023-04-15T14:42:48.741Z,8.68
2023-04-15T14:45:15.782Z,11.25
2023-04-15T14:47:42.743Z,9.80
2023-04-15T14:50:10.090Z,12.02
2023-04-15T14:52:42.833Z,10.45
2023-04-15T14:55:11.170Z,10.23
2023-04-15T14:57:39.007Z,12.55
2023-04-15T15:00:07.408Z,10.75
2023-04-15T15:05:05.095Z,11.77
2023-04-15T15:07:32.401Z,10.48
2023-04-15T15:09:59.322Z,7.90
2023-04-15T15:12:26.676Z,11.77
2023-04-15T15:14:55.255Z,14.32
2023-04-15T15:17:22.573Z,11.38
2023-04-15T15:19:49.510Z,10.70
2023-04-15T15:22:21.329Z,11.98
2023-04-15T15:24:48.404Z,5.40
2023-04-15T15:27:15.328Z,10.52
2023-04-15T15:29:42.276Z,13.13
2023-04-15T15:32:09.076Z,15.23
2023-04-15T15:34:36.175Z,11.38
2023-04-15T15:37:03.188Z,10.85
2023-04-15T15:39:31.277Z,10.80
2023-04-15T15:41:58.141Z,9.15
2023-04-15T15:44:24.959Z,12.10
2023-04-15T15:46:52.377Z,12.00
2023-04-15T15:49:20.131Z,10.27
2023-04-15T15:51:47.324Z,11.93
2023-04-15T15:54:14.415Z,11.98
2023-04-15T15:56:42.682Z,13.65
2023-04-15T15:59:09.674Z,15.27
2023-04-15T16:01:36.545Z,10.98
2023-04-15T16:04:03.646Z,14.68
2023-04-15T16:06:34.414Z,11.50
2023-04-15T16:09:02.306Z,10.67
2023-04-15T16:11:29.692Z,10.82
2023-04-15T16:13:56.539Z,18.60
2023-04-15T16:16:24.367Z,9.52
2023-04-15T16:18:53.085Z,8.00
2023-04-15T16:21:20.745Z,12.55
2023-04-15T16:23:48.815Z,14.27
2023-04-15T16:26:15.659Z,13.02
2023-04-15T16:28:43.475Z,11.32
2023-04-15T16:31:13.573Z,15.50
2023-04-15T16:33:40.589Z,18.20
2023-04-15T16:36:07.614Z,10.38
2023-04-15T16:38:34.533Z,9.77
2023-04-15T16:41:02.263Z,15.63
2023-04-15T16:43:29.722Z,11.85
2023-04-15T16:45:56.665Z,9.50
2023-04-15T16:48:23.645Z,9.13
2023-04-15T16:50:50.757Z,8.73
2023-04-15T16:53:17.586Z,16.50
2023-04-15T16:55:44.534Z,12.77
2023-04-15T16:58:11.780Z,12.52
2023-04-15T17:00:39.047Z,14.30
2023-04-15T17:03:06.399Z,8.77
2023-04-15T17:05:33.441Z,17.25
2023-04-15T17:08:00.646Z,17.17
2023-04-15T17:10:28.264Z,14.55
2023-04-15T17:12:58.391Z,12.80
2023-04-15T17:15:26.039Z,10.57
2023-04-15T17:17:54.862Z,12.70
2023-04-15T17:20:22.094Z,7.80
2023-04-15T17:22:49.320Z,9.40
2023-04-15T17:25:16.419Z,17.48
2023-04-15T17:27:43.470Z,11.88
2023-04-15T17:30:12.884Z,5.65
2023-04-15T17:32:41.162Z,16.20
2023-04-15T17:35:08.555Z,13.85
2023-04-15T17:37:36.209Z,14.30
2023-04-15T17:40:04.048Z,11.18
2023-04-15T17:42:33.190Z,14.60
2023-04-15T17:45:00.023Z,8.88
2023-04-15T17:47:28.138Z,11.05
2023-04-15T17:49:54.861Z,16.25
2023-04-15T17:52:21.842Z,14.65
2023-04-15T17:54:49.870Z,15.10
2023-04-15T17:57:18.336Z,10.77
2023-04-15T17:59:47.483Z,16.13
2023-04-15T18:02:16.073Z,10.95
2023-04-15T18:04:43.436Z,13.90
2023-04-15T18:07:10.575Z,16.85
2023-04-15T18:09:37.844Z,15.75
2023-04-15T18:12:07.581Z,14.02
2023-04-15T18:14:35.341Z,16.02
2023-04-15T18:17:05.210Z,15.25
2023-04-15T18:19:32.724Z,13.65
2023-04-15T18:22:03.254Z,64.95
2023-04-15T18:24:30.411Z,12.70
2023-04-15T18:26:57.505Z,17.42
2023-04-15T18:29:25.672Z,14.60
2023-04-15T18:31:53.278Z,9.20
2023-04-15T18:34:20.285Z,7.80
2023-04-15T18:36:47.378Z,23.35
2023-04-15T18:39:14.136Z,7.70
2023-04-15T18:41:40.895Z,14.73
2023-04-15T18:44:07.707Z,12.38
2023-04-15T18:46:34.858Z,12.88
2023-04-15T18:49:01.752Z,12.13
2023-04-15T18:51:28.440Z,21.25
2023-04-15T18:53:55.657Z,12.10
2023-04-15T18:56:23.872Z,7.57
2023-04-15T18:59:09.533Z,10.13
2023-04-15T19:01:37.836Z,9.80
2023-04-15T19:04:04.962Z,10.32
2023-04-15T19:06:31.977Z,11.70
2023-04-15T19:08:58.795Z,10.50
2023-04-15T19:11:26.089Z,13.05
2023-04-15T19:13:53.388Z,15.70
2023-04-15T19:16:20.942Z,8.88
2023-04-15T19:18:47.871Z,12.65
2023-04-15T19:21:15.583Z,10.05
2023-04-15T19:23:45.931Z,7.60
2023-04-15T19:26:12.657Z,10.10
2023-04-15T19:28:39.903Z,13.68
2023-04-15T19:31:06.797Z,10.90
2023-04-15T19:33:33.872Z,11.88
2023-04-15T19:36:06.009Z,15.57
2023-04-15T19:38:37.747Z,12.98
2023-04-15T19:41:05.230Z,12.38
2023-04-15T19:43:33.179Z,14.55
2023-04-15T19:46:00.234Z,8.50
2023-04-15T19:48:29.713Z,16.58
2023-04-15T19:50:58.042Z,12.45
2023-04-15T19:53:25.754Z,12.75
2023-04-15T19:55:53.598Z,13.60
2023-04-15T19:58:20.660Z,11.85
2023-04-15T20:00:47.449Z,15.82
2023-04-15T20:03:14.608Z,14.45
2023-04-15T20:05:41.545Z,14.10
2023-04-15T20:08:08.338Z,13.27
2023-04-15T20:10:37.009Z,14.43
2023-04-15T20:13:03.863Z,14.80
2023-04-15T20:15:30.814Z,13.85
2023-04-15T20:17:57.738Z,12.68
2023-04-15T20:20:24.594Z,14.52
2023-04-15T20:22:53.342Z,20.67
2023-04-15T20:25:20.060Z,16.77
2023-04-15T20:27:46.905Z,11.45
2023-04-15T20:30:13.654Z,13.30
2023-04-15T20:32:41.519Z,15.50
2023-04-15T20:35:08.554Z,14.05
2023-04-15T20:37:37.474Z,13.88
2023-04-15T20:40:04.698Z,16.10
2023-04-15T20:42:35.860Z,14.80
2023-04-15T20:45:02.954Z,24.77
2023-04-15T20:47:30.355Z,37.60
2023-04-15T20:49:57.505Z,24.85
2023-04-15T20:52:25.998Z,21.92
2023-04-15T20:54:52.892Z,12.18
2023-04-15T20:57:21.076Z,15.05
2023-04-15T20:59:47.766Z,19.17
2023-04-15T21:02:14.657Z,10.00
2023-04-15T21:04:41.847Z,24.83
2023-04-15T21:07:09.520Z,23.20
2023-04-15T21:09:36.325Z,6.88
2023-04-15T21:12:03.401Z,17.50
2023-04-15T21:14:30.193Z,14.02
2023-04-15T21:16:59.091Z,17.52
2023-04-15T21:19:26.357Z,15.88
2023-04-15T21:21:53.189Z,15.77
2023-04-15T21:24:20.023Z,15.60
2023-04-15T21:26:46.993Z,15.43
2023-04-15T21:29:13.873Z,14.63
2023-04-15T21:31:42.238Z,11.40
2023-04-15T21:34:09.608Z,13.27
2023-04-15T21:36:37.764Z,10.85
2023-04-15T21:39:05.838Z,13.93
2023-04-15T21:41:32.962Z,10.60
2023-04-15T21:43:59.988Z,11.13
2023-04-15T21:46:32.680Z,11.18
2023-04-15T21:49:00.700Z,5.95
2023-04-15T21:51:27.934Z,9.82
2023-04-15T21:53:55.189Z,13.48
2023-04-15T21:56:24.286Z,13.90
2023-04-15T21:58:54.313Z,11.85
2023-04-15T22:01:21.178Z,10.77
2023-04-15T22:03:48.066Z,7.53
2023-04-15T22:06:15.243Z,12.93
2023-04-15T22:08:55.391Z,12.57
2023-04-15T22:11:27.683Z,12.35
2023-04-15T22:13:57.614Z,6.95
2023-04-15T22:16:28.056Z,7.25
2023-04-15T22:18:56.047Z,10.60
2023-04-15T22:21:23.212Z,7.95
2023-04-15T22:23:51.476Z,12.73
2023-04-15T22:26:18.608Z,13.77
2023-04-15T22:28:45.675Z,8.40
2023-04-15T22:31:13.791Z,7.78
2023-04-15T22:33:40.693Z,9.38
2023-04-15T22:36:08.579Z,16.40
2023-04-15T22:38:36.152Z,14.27
2023-04-15T22:41:03.243Z,9.70
2023-04-15T22:43:30.033Z,15.27
2023-04-15T22:45:56.983Z,8.35
2023-04-15T22:48:23.924Z,16.88
2023-04-15T22:50:50.826Z,13.65
2023-04-15T22:53:18.049Z,15.02
2023-04-15T22:55:49.250Z,12.07
2023-04-15T22:58:18.337Z,14.30
2023-04-15T23:00:45.610Z,13.77
2023-04-15T23:03:12.636Z,12.02
2023-04-15T23:05:41.255Z,14.20
2023-04-15T23:08:08.657Z,15.32
2023-04-15T23:10:35.596Z,14.73
2023-04-15T23:13:02.359Z,11.73
2023-04-15T23:15:29.146Z,15.55
2023-04-15T23:17:56.161Z,16.88
2023-04-15T23:20:23.124Z,18.83
2023-04-15T23:22:49.906Z,16.10
2023-04-15T23:25:16.778Z,16.17
2023-04-15T23:27:43.541Z,14.85
2023-04-15T23:30:10.552Z,10.27
2023-04-15T23:32:37.210Z,13.63
2023-04-15T23:35:04.439Z,13.13
2023-04-15T23:37:31.907Z,14.68
2023-04-15T23:39:58.712Z,15.20
2023-04-15T23:42:27.169Z,12.70
2023-04-15T23:44:53.960Z,13.93
2023-04-15T23:47:22.215Z,11.88
2023-04-15T23:49:48.878Z,8.90
2023-04-15T23:52:15.758Z,11.65
2023-04-15T23:54:42.466Z,12.85
2023-04-15T23:57:09.354Z,15.95
2023-04-15T23:59:36.302Z,14.00
